Time;durP1;ratioP1;P1;durP2;ratioP2;P2;SDS_P1;SDS_P2;PMS_P1;PMS_P2;Temp;Humidity;BMP_temperature;BMP_pressure;BME280_temperature;BME280_humidity;BME280_pressure;Samples;Min_cycle;Max_cycle;Signal;HPM_P1;HPM_P2
2022/08/05 00:01:00;;;;;;;;;3.25;3.25;;;;;23.23;55.83;100990.06;5019642;28;45559;-66
2022/08/05 00:03:25;;;;;;;;;4.00;4.00;;;;;23.13;56.36;101019.06;5018676;28;45276;-66
2022/08/05 00:05:51;;;;;;;;;2.50;2.50;;;;;23.06;57.20;101050.47;5019422;28;47770;-66
2022/08/05 00:08:16;;;;;;;;;4.75;4.00;;;;;23.05;56.94;101095.84;5019718;28;45532;-66
2022/08/05 00:10:41;;;;;;;;;3.00;3.00;;;;;23.05;57.31;101212.94;5020375;28;45454;-66
2022/08/05 00:13:07;;;;;;;;;3.00;3.00;;;;;23.07;58.44;101216.47;5020004;28;45548;-66
2022/08/05 00:15:32;;;;;;;;;2.75;2.75;;;;;23.09;58.02;101241.72;5019963;28;45308;-66
2022/08/05 00:17:57;;;;;;;;;4.00;3.00;;;;;23.10;58.79;101248.00;5019805;28;45279;-66
2022/08/05 00:20:23;;;;;;;;;4.00;4.00;;;;;23.10;59.18;101231.66;5019575;28;54016;-66
2022/08/05 00:22:48;;;;;;;;;4.25;4.25;;;;;23.11;58.78;101176.25;5015151;28;46305;-66
2022/08/05 00:25:14;;;;;;;;;4.00;3.00;;;;;23.03;58.40;101186.84;5020011;28;45316;-66
2022/08/05 00:27:39;;;;;;;;;4.25;4.25;;;;;23.07;59.39;101196.50;5019601;28;45309;-66
2022/08/05 00:30:05;;;;;;;;;5.00;3.00;;;;;23.07;58.66;101267.31;5020174;28;45399;-66
2022/08/05 00:32:30;;;;;;;;;4.00;4.00;;;;;23.07;59.08;101201.97;5019650;28;45239;-66
2022/08/05 00:34:55;;;;;;;;;5.00;3.00;;;;;23.01;58.76;101109.84;5019910;28;45318;-66
2022/08/05 00:37:21;;;;;;;;;4.00;4.00;;;;;22.99;58.97;101161.72;5019645;28;45198;-66
2022/08/05 00:39:46;;;;;;;;;4.25;3.00;;;;;23.01;58.79;101238.66;5019837;28;45768;-66
2022/08/05 00:42:15;;;;;;;;;5.75;4.00;;;;;23.02;59.53;101304.88;5019347;28;45516;-66
2022/08/05 00:44:40;;;;;;;;;3.75;3.25;;;;;23.02;59.54;101300.31;5019589;28;45444;-66
2022/08/05 00:47:05;;;;;;;;;4.50;4.00;;;;;23.01;59.64;101237.81;5019484;28;45300;-66
2022/08/05 00:49:31;;;;;;;;;4.00;4.00;;;;;22.98;59.40;101189.03;5019884;28;45614;-66
2022/08/05 00:51:57;;;;;;;;;2.75;2.50;;;;;22.92;59.19;101202.16;5019313;28;45593;-66
2022/08/05 00:54:22;;;;;;;;;6.50;3.75;;;;;22.92;59.07;101185.81;5017929;28;49268;-66
2022/08/05 00:56:47;;;;;;;;;4.25;4.00;;;;;22.91;59.30;101156.84;5019288;28;45324;-66
2022/08/05 00:59:12;;;;;;;;;3.00;3.00;;;;;22.87;59.30;101174.41;5019305;28;52193;-66
2022/08/05 01:01:39;;;;;;;;;5.25;5.00;;;;;22.80;59.58;101273.84;5018987;28;48280;-66
2022/08/05 01:04:04;;;;;;;;;4.50;4.00;;;;;22.84;59.50;101278.06;5019209;28;46321;-66
2022/08/05 01:06:30;;;;;;;;;6.00;3.75;;;;;22.82;59.64;101209.28;5019303;28;45244;-66
2022/08/05 01:08:55;;;;;;;;;3.75;3.75;;;;;22.83;58.75;101142.09;5019240;28;45227;-66
2022/08/05 01:11:25;;;;;;;;;3.25;2.50;;;;;22.76;58.95;101104.47;5019084;28;52263;-66
2022/08/05 01:14:08;;;;;;;;;3.00;3.00;;;;;22.71;59.55;101212.81;5021316;28;46063;-66
2022/08/05 01:17:01;;;;;;;;;3.00;3.00;;;;;22.70;59.79;101260.09;5022635;28;45342;-66
2022/08/05 01:19:34;;;;;;;;;2.50;2.50;;;;;22.68;59.32;101239.41;5022846;28;45232;-66
2022/08/05 01:22:11;;;;;;;;;2.75;2.50;;;;;22.71;59.41;101241.91;5021623;28;45320;-66
2022/08/05 01:24:48;;;;;;;;;3.25;2.75;;;;;22.70;59.24;101229.25;5022196;28;47212;-66
2022/08/05 01:27:41;;;;;;;;;2.25;2.25;;;;;22.68;59.22;101251.13;5022381;28;45523;-66
2022/08/05 01:30:07;;;;;;;;;5.25;5.25;;;;;22.64;59.25;101195.22;5022858;28;45245;-66
2022/08/05 01:32:35;;;;;;;;;2.00;2.00;;;;;22.60;59.44;101152.03;5022389;28;45502;-66
2022/08/05 01:35:05;;;;;;;;;3.00;3.00;;;;;22.57;59.55;101134.97;5022441;28;47087;-66
2022/08/05 01:37:44;;;;;;;;;2.00;1.00;;;;;22.56;59.91;101132.38;5022105;28;45487;-66
2022/08/05 01:40:11;;;;;;;;;5.00;3.00;;;;;22.54;59.29;101127.03;5022572;28;45375;-66
2022/08/05 01:42:39;;;;;;;;;3.75;2.75;;;;;22.54;59.15;101088.97;5022196;28;45572;-66
2022/08/05 01:45:06;;;;;;;;;3.50;1.75;;;;;22.53;59.08;101147.06;5022132;28;45253;-66
2022/08/05 01:47:34;;;;;;;;;2.50;2.00;;;;;22.53;58.71;101157.09;5022075;28;45293;-66
2022/08/05 01:50:01;;;;;;;;;2.50;2.50;;;;;22.45;58.93;101141.34;5022624;28;45379;-66
2022/08/05 01:52:28;;;;;;;;;2.00;2.00;;;;;22.40;58.99;101192.50;5017809;28;45549;-66
2022/08/05 01:54:57;;;;;;;;;3.25;2.75;;;;;22.39;59.70;101191.66;5021757;28;45343;-66
2022/08/05 01:57:29;;;;;;;;;3.50;2.00;;;;;22.37;59.77;101150.09;5022042;28;45420;-66
2022/08/05 01:59:59;;;;;;;;;2.75;2.75;;;;;22.38;59.41;101162.69;5022248;28;45293;-66
2022/08/05 02:02:26;;;;;;;;;4.00;2.75;;;;;22.39;59.35;101169.88;5022016;28;45462;-66
2022/08/05 02:04:55;;;;;;;;;2.50;2.50;;;;;22.40;59.87;101162.59;5021885;28;45401;-66
2022/08/05 02:07:21;;;;;;;;;2.25;2.25;;;;;22.39;60.59;101188.06;5022166;28;45194;-65
2022/08/05 02:09:46;;;;;;;;;4.00;3.00;;;;;22.36;60.34;101167.38;5021772;28;45396;-66
2022/08/05 02:12:22;;;;;;;;;2.00;2.00;;;;;22.39;60.60;101177.19;5021858;28;45214;-66
2022/08/05 02:14:54;;;;;;;;;2.50;1.50;;;;;22.36;60.54;101182.84;5021563;28;45463;-65
2022/08/05 02:17:34;;;;;;;;;5.00;2.75;;;;;22.36;60.98;101189.16;5021948;28;45388;-65
2022/08/05 02:20:04;;;;;;;;;2.00;2.00;;;;;22.36;60.76;101183.72;5021757;28;45359;-65
2022/08/05 02:22:35;;;;;;;;;2.75;2.00;;;;;22.32;60.69;101179.50;5019801;28;45367;-65
2022/08/05 02:25:27;;;;;;;;;4.75;3.00;;;;;22.32;60.29;101192.19;5020642;28;45777;-65
2022/08/05 02:27:55;;;;;;;;;3.00;2.00;;;;;22.32;60.94;101200.38;5019344;28;45399;-65
2022/08/05 02:30:23;;;;;;;;;2.00;2.00;;;;;22.32;61.07;101211.25;5021786;28;45256;-65
2022/08/05 02:32:53;;;;;;;;;2.25;2.25;;;;;22.27;61.02;101202.53;5021510;28;45151;-65
2022/08/05 02:35:21;;;;;;;;;2.75;2.00;;;;;22.31;60.78;101231.28;5021525;28;46379;-65
2022/08/05 02:37:47;;;;;;;;;3.00;2.75;;;;;22.30;60.82;101221.38;5021148;28;45475;-65
2022/08/05 02:40:15;;;;;;;;;4.75;3.25;;;;;22.26;60.85;101204.38;5021565;28;45494;-66
2022/08/05 02:42:42;;;;;;;;;1.50;1.50;;;;;22.24;61.32;101206.38;5021204;28;45498;-66
2022/08/05 02:45:09;;;;;;;;;3.00;3.00;;;;;22.27;61.58;101202.53;5021130;28;45376;-65
2022/08/05 02:47:36;;;;;;;;;4.00;3.00;;;;;22.16;60.61;101097.31;5021488;28;45220;-66
2022/08/05 02:50:05;;;;;;;;;4.50;3.00;;;;;22.02;60.79;101117.38;5021361;28;45542;-65
2022/08/05 02:52:31;;;;;;;;;2.00;2.00;;;;;22.08;60.79;101141.38;5017047;28;45167;-66
2022/08/05 02:54:59;;;;;;;;;3.25;3.25;;;;;22.04;61.89;101139.88;5014925;28;46080;-65
2022/08/05 02:57:26;;;;;;;;;2.75;2.75;;;;;22.07;61.68;101128.78;5021023;28;45305;-66
2022/08/05 02:59:53;;;;;;;;;6.00;4.50;;;;;22.08;61.48;101140.50;5021193;28;45339;-66
2022/08/05 03:02:23;;;;;;;;;3.25;3.25;;;;;22.10;61.68;101161.19;5020887;28;45551;-66
2022/08/05 03:04:50;;;;;;;;;2.25;2.25;;;;;22.08;61.83;101174.00;5019458;28;46171;-65
2022/08/05 03:07:17;;;;;;;;;2.75;2.75;;;;;22.08;61.66;101193.03;5020882;28;45272;-65
2022/08/05 03:09:44;;;;;;;;;4.25;3.25;;;;;22.06;61.49;101203.16;5021001;28;45539;-66
2022/08/05 03:12:27;;;;;;;;;4.00;3.00;;;;;22.05;61.31;101220.44;5020829;28;45541;-65
2022/08/05 03:14:52;;;;;;;;;4.00;3.00;;;;;22.00;60.91;101190.00;5020541;28;46218;-65
2022/08/05 03:17:18;;;;;;;;;3.75;3.00;;;;;22.03;61.62;101197.94;5020781;28;45742;-65
2022/08/05 03:19:43;;;;;;;;;2.00;2.00;;;;;22.02;61.56;101191.63;5020705;28;45289;-65
2022/08/05 03:22:08;;;;;;;;;2.75;2.00;;;;;21.97;61.07;101166.66;5020483;28;54961;-65
2022/08/05 03:24:34;;;;;;;;;2.25;2.25;;;;;21.91;61.00;101171.66;5019839;28;58760;-65
2022/08/05 03:26:59;;;;;;;;;3.00;2.25;;;;;21.96;60.35;101193.94;5020567;28;45307;-65
2022/08/05 03:29:25;;;;;;;;;4.00;3.00;;;;;21.94;60.17;101183.19;5020839;28;45307;-65
2022/08/05 03:31:51;;;;;;;;;2.50;2.00;;;;;21.91;60.84;101183.41;5020588;28;45581;-65
2022/08/05 03:34:17;;;;;;;;;2.00;2.00;;;;;21.89;61.00;101185.38;5019505;28;46209;-65
2022/08/05 03:36:43;;;;;;;;;3.50;2.25;;;;;21.89;61.03;101188.09;5019430;28;45460;-65
2022/08/05 03:39:08;;;;;;;;;4.00;2.00;;;;;21.87;61.36;101200.91;5020387;28;45203;-65
2022/08/05 03:41:34;;;;;;;;;4.00;2.00;;;;;21.86;61.64;101201.88;5020361;28;45249;-65
2022/08/05 03:43:59;;;;;;;;;4.50;3.75;;;;;21.84;61.32;101202.00;5020232;28;46316;-65
2022/08/05 03:46:24;;;;;;;;;3.00;3.00;;;;;21.83;61.24;101202.09;5020529;28;45359;-65
2022/08/05 03:48:50;;;;;;;;;4.00;4.00;;;;;21.83;61.10;101211.16;5020419;28;45305;-65
2022/08/05 03:51:20;;;;;;;;;3.00;3.00;;;;;21.82;61.19;101201.25;5020049;28;54929;-65
2022/08/05 03:54:05;;;;;;;;;3.75;3.25;;;;;21.79;61.10;101206.03;5019910;28;45372;-65
2022/08/05 03:56:51;;;;;;;;;4.00;3.00;;;;;21.80;61.73;101213.19;5020211;28;45369;-65
2022/08/05 03:59:29;;;;;;;;;1.00;1.00;;;;;21.79;61.11;101211.47;5020025;28;45349;-65
2022/08/05 04:01:57;;;;;;;;;3.00;3.00;;;;;21.75;61.15;101197.25;5020033;28;45568;-65
2022/08/05 04:04:23;;;;;;;;;3.00;3.00;;;;;21.75;61.38;101183.66;5019154;28;46116;-65
2022/08/05 04:06:50;;;;;;;;;7.25;3.00;;;;;21.73;61.83;101177.44;5020127;28;45324;-65
2022/08/05 04:09:16;;;;;;;;;5.00;3.00;;;;;21.75;61.89;101180.06;5020068;28;45517;-66
2022/08/05 04:11:42;;;;;;;;;5.75;4.00;;;;;21.71;61.20;101182.13;5019806;28;45315;-65
2022/08/05 04:14:07;;;;;;;;;3.00;3.00;;;;;21.72;61.43;101183.00;5019942;28;46301;-65
2022/08/05 04:16:34;;;;;;;;;2.00;2.00;;;;;21.68;61.43;101186.91;5019937;28;45360;-65
2022/08/05 04:19:00;;;;;;;;;2.00;2.00;;;;;21.72;61.38;101199.28;5020225;28;45357;-65
2022/08/05 04:21:26;;;;;;;;;4.50;4.00;;;;;21.70;61.25;101195.81;5019604;28;45410;-65
2022/08/05 04:23:51;;;;;;;;;5.25;3.00;;;;;21.71;61.66;101197.56;5019829;28;45388;-65
2022/08/05 04:26:17;;;;;;;;;5.50;4.00;;;;;21.66;61.73;101197.91;5019699;28;45299;-65
2022/08/05 04:28:42;;;;;;;;;3.00;3.00;;;;;21.69;61.44;101197.69;5019931;28;45592;-65
2022/08/05 04:31:07;;;;;;;;;4.25;3.00;;;;;21.67;61.06;101187.88;5019736;28;45442;-65
2022/08/05 04:33:33;;;;;;;;;2.50;2.50;;;;;21.66;61.67;101195.19;5018510;28;45494;-65
2022/08/05 04:35:58;;;;;;;;;4.00;3.50;;;;;21.58;61.20;101176.69;5019848;28;45458;-65
2022/08/05 04:38:24;;;;;;;;;4.00;4.00;;;;;21.61;61.47;101184.63;5019639;28;45812;-65
2022/08/05 04:40:49;;;;;;;;;3.00;3.00;;;;;21.61;60.81;101181.06;5019602;28;45479;-65
2022/08/05 04:43:14;;;;;;;;;4.00;3.75;;;;;21.61;61.02;101181.06;5019388;28;45249;-65
2022/08/05 04:45:40;;;;;;;;;0.25;0.25;;;;;21.58;60.78;101184.00;5019436;28;45498;-65
2022/08/05 04:48:07;;;;;;;;;2.00;2.00;;;;;21.58;61.12;101197.56;5021206;28;45233;-65
2022/08/05 04:50:43;;;;;;;;;2.50;2.50;;;;;21.54;60.91;101198.78;5022903;28;45296;-65
2022/08/05 04:53:10;;;;;;;;;6.25;5.25;;;;;21.53;60.98;101205.19;5022943;28;46137;-65
2022/08/05 04:55:36;;;;;;;;;5.25;3.25;;;;;21.52;60.67;101220.63;5022480;28;45511;-65
2022/08/05 04:58:04;;;;;;;;;4.00;4.00;;;;;21.52;61.45;101208.88;5023033;28;45331;-65
2022/08/05 05:00:30;;;;;;;;;4.00;4.00;;;;;21.49;60.86;101209.13;5022867;28;45459;-65
2022/08/05 05:02:55;;;;;;;;;5.50;4.00;;;;;21.48;61.00;101213.66;5022688;28;45284;-65
2022/08/05 05:05:20;;;;;;;;;4.00;2.50;;;;;21.46;61.10;101211.00;5019727;28;59146;-65
2022/08/05 05:07:46;;;;;;;;;4.50;2.75;;;;;21.42;61.30;101212.22;5021973;28;45137;-65
2022/08/05 05:10:11;;;;;;;;;5.50;4.50;;;;;21.38;60.94;101218.81;5022622;28;45598;-65
2022/08/05 05:12:36;;;;;;;;;4.25;3.75;;;;;21.39;60.73;101231.44;5022670;28;51189;-65
2022/08/05 05:15:03;;;;;;;;;5.25;5.25;;;;;21.41;61.26;101223.19;5021540;28;46977;-66
2022/08/05 05:17:35;;;;;;;;;5.25;5.00;;;;;21.39;60.91;101234.16;5022897;28;45229;-65
2022/08/05 05:20:01;;;;;;;;;4.25;3.00;;;;;21.37;61.01;101236.13;5022621;28;45505;-65
2022/08/05 05:22:26;;;;;;;;;5.00;5.00;;;;;21.37;60.96;101240.69;5022302;28;46525;-65
2022/08/05 05:24:55;;;;;;;;;6.75;5.25;;;;;21.36;61.38;101241.66;5022319;28;52203;-65
2022/08/05 05:27:20;;;;;;;;;5.50;4.75;;;;;21.36;61.12;101247.09;5018422;28;45446;-65
2022/08/05 05:29:45;;;;;;;;;4.00;4.00;;;;;21.32;60.72;101242.81;5022661;28;45880;-65
2022/08/05 05:32:11;;;;;;;;;5.00;4.00;;;;;21.31;61.36;101243.81;5021665;28;61548;-65
2022/08/05 05:34:36;;;;;;;;;3.50;3.00;;;;;21.32;60.99;101253.69;5021215;28;51160;-65
2022/08/05 05:37:01;;;;;;;;;3.50;3.50;;;;;21.33;61.05;101260.88;5022474;28;45294;-65
2022/08/05 05:39:27;;;;;;;;;2.00;2.00;;;;;21.31;60.89;101266.41;5022289;28;45241;-66
2022/08/05 05:41:52;;;;;;;;;4.00;3.00;;;;;21.31;60.55;101270.97;5022118;28;45379;-65
2022/08/05 05:44:17;;;;;;;;;4.00;3.00;;;;;21.24;61.36;101275.97;5021907;28;57272;-65
2022/08/05 05:46:42;;;;;;;;;3.00;3.00;;;;;21.23;61.03;101274.22;5022306;28;45502;-65
2022/08/05 05:49:08;;;;;;;;;3.00;3.00;;;;;21.25;60.60;101280.41;5021954;28;56491;-65
2022/08/05 05:51:33;;;;;;;;;5.00;3.00;;;;;21.27;61.32;101286.63;5019972;28;48365;-65
2022/08/05 05:53:58;;;;;;;;;5.00;4.00;;;;;21.28;59.99;101283.78;5021184;28;57677;-65
2022/08/05 05:56:28;;;;;;;;;2.50;2.50;;;;;21.31;59.91;101285.41;5021793;28;51786;-65
2022/08/05 05:58:53;;;;;;;;;3.25;2.00;;;;;21.33;60.19;101294.31;5021269;28;45296;-65
2022/08/05 06:01:18;;;;;;;;;3.00;3.00;;;;;21.31;60.56;101284.56;5021129;28;45301;-65
2022/08/05 06:03:43;;;;;;;;;3.00;3.00;;;;;21.34;60.44;101301.50;5021974;28;45221;-65
2022/08/05 06:06:09;;;;;;;;;4.50;4.00;;;;;21.33;60.55;101302.47;5022057;28;45502;-65
2022/08/05 06:08:34;;;;;;;;;3.75;2.00;;;;;21.32;61.13;101295.31;5021825;28;45147;-65
2022/08/05 06:11:00;;;;;;;;;4.75;3.75;;;;;21.34;60.95;101293.34;5021766;28;45238;-65
2022/08/05 06:13:25;;;;;;;;;3.50;3.50;;;;;21.33;60.48;101305.19;5020218;28;45435;-65
2022/08/05 06:15:51;;;;;;;;;4.50;3.50;;;;;21.34;60.30;101312.34;5021719;28;45449;-65
2022/08/05 06:18:16;;;;;;;;;2.25;2.25;;;;;21.35;60.67;101318.66;5021976;28;45580;-65
2022/08/05 06:20:41;;;;;;;;;5.50;3.50;;;;;21.32;60.51;101302.56;5021604;28;46900;-65
2022/08/05 06:23:07;;;;;;;;;3.75;2.75;;;;;21.36;60.49;101313.13;5020052;28;45391;-65
2022/08/05 06:25:32;;;;;;;;;4.00;3.00;;;;;21.36;60.60;101315.84;5021648;28;45333;-65
2022/08/05 06:27:57;;;;;;;;;5.00;4.00;;;;;21.33;60.48;101307.88;5021109;28;48794;-65
2022/08/05 06:30:25;;;;;;;;;3.25;2.75;;;;;21.42;59.80;101318.13;5021499;28;46099;-65
2022/08/05 06:32:51;;;;;;;;;3.25;2.75;;;;;21.44;60.14;101323.47;5021320;28;45218;-65
2022/08/05 06:35:17;;;;;;;;;4.00;4.00;;;;;21.46;59.92;101326.94;5021779;28;45243;-66
2022/08/05 06:37:43;;;;;;;;;3.50;3.50;;;;;21.42;60.51;101315.41;5021210;28;45238;-65
2022/08/05 06:40:09;;;;;;;;;3.25;3.25;;;;;21.48;60.62;101316.84;5021123;28;52676;-65
2022/08/05 06:42:35;;;;;;;;;4.50;4.00;;;;;21.48;60.31;101327.72;5020999;28;45208;-65
2022/08/05 06:45:00;;;;;;;;;4.00;4.00;;;;;21.49;60.51;101317.75;5021395;28;45378;-65
2022/08/05 06:47:26;;;;;;;;;5.00;4.00;;;;;21.48;60.71;101327.72;5021199;28;45398;-65
2022/08/05 06:49:51;;;;;;;;;4.00;4.00;;;;;21.46;60.40;101314.22;5019778;28;45311;-65
2022/08/05 06:52:16;;;;;;;;;5.00;5.00;;;;;21.49;60.55;101324.03;5010107;28;45435;-65
2022/08/05 06:54:42;;;;;;;;;4.00;4.00;;;;;21.48;60.41;101322.28;5021040;28;45291;-65
2022/08/05 06:57:07;;;;;;;;;2.75;2.50;;;;;21.49;60.49;101318.63;5019201;28;48066;-65
2022/08/05 06:59:32;;;;;;;;;3.25;3.25;;;;;21.50;59.62;101314.03;5019713;28;46940;-66
2022/08/05 07:01:58;;;;;;;;;4.00;4.00;;;;;21.54;59.96;101321.00;5020753;28;45303;-65
2022/08/05 07:04:23;;;;;;;;;3.25;3.25;;;;;21.54;60.03;101318.31;5021384;28;45333;-65
2022/08/05 07:06:48;;;;;;;;;6.00;5.25;;;;;21.57;59.65;101316.22;5020895;28;45369;-65
2022/08/05 07:09:13;;;;;;;;;6.25;4.25;;;;;21.61;59.82;101325.03;5020828;28;45386;-65
2022/08/05 07:11:39;;;;;;;;;4.75;4.00;;;;;21.59;60.01;101321.56;5019696;28;54468;-66
2022/08/05 07:16:48;;;;;;;;;3.25;3.25;;;;;21.64;60.89;101322.97;5020880;28;45411;-65
2022/08/05 07:19:15;;;;;;;;;4.00;4.00;;;;;21.63;59.65;101331.22;5020641;28;46087;-65
2022/08/05 07:21:41;;;;;;;;;6.50;4.50;;;;;21.67;59.88;101338.19;5020563;28;45233;-65
2022/08/05 07:24:07;;;;;;;;;6.00;5.00;;;;;21.69;60.17;101347.09;5020565;28;45330;-65
2022/08/05 07:26:32;;;;;;;;;6.25;4.00;;;;;21.72;61.24;101337.84;5020561;28;45246;-65
2022/08/05 07:28:57;;;;;;;;;5.00;5.00;;;;;21.69;59.15;101330.81;5017876;28;46096;-65
2022/08/05 07:31:23;;;;;;;;;6.00;4.50;;;;;21.69;60.56;101336.25;5019445;28;47832;-65
2022/08/05 07:33:48;;;;;;;;;4.50;4.50;;;;;21.71;60.58;101341.56;5020619;28;45383;-65
2022/08/05 07:36:14;;;;;;;;;6.00;6.00;;;;;21.74;60.35;101353.09;5020520;28;45494;-65
2022/08/05 07:38:39;;;;;;;;;5.75;4.25;;;;;21.79;60.19;101356.34;5020267;28;45264;-65
2022/08/05 07:41:09;;;;;;;;;8.00;5.75;;;;;21.84;59.66;101364.19;5019095;28;45235;-65
2022/08/05 07:43:35;;;;;;;;;5.00;4.75;;;;;21.82;59.61;101364.28;5020367;28;45327;-65
2022/08/05 07:46:00;;;;;;;;;5.00;4.00;;;;;21.88;59.50;101373.00;5020279;28;45244;-66
2022/08/05 07:48:25;;;;;;;;;6.25;5.00;;;;;21.86;60.38;101353.22;5020166;28;45344;-65
2022/08/05 07:50:51;;;;;;;;;9.00;6.00;;;;;21.88;60.49;101365.69;5020117;28;45238;-65
2022/08/05 07:53:16;;;;;;;;;6.75;6.50;;;;;21.93;60.12;101368.09;5019674;28;45332;-65
2022/08/05 07:55:42;;;;;;;;;7.00;5.75;;;;;21.94;60.29;101367.13;5019862;28;54988;-65
2022/08/05 07:58:07;;;;;;;;;5.50;5.50;;;;;21.98;59.77;101364.06;5019722;28;45250;-64
2022/08/05 08:00:32;;;;;;;;;4.25;4.25;;;;;22.04;60.14;101370.94;5019988;28;50584;-65
2022/08/05 08:02:58;;;;;;;;;6.00;5.00;;;;;22.09;60.58;101373.34;5019906;28;45242;-65
2022/08/05 08:05:24;;;;;;;;;6.25;6.25;;;;;22.13;59.23;101374.84;5018551;28;45174;-64
2022/08/05 08:07:50;;;;;;;;;8.75;6.00;;;;;22.19;59.80;101375.28;5012976;28;46232;-65
2022/08/05 08:10:15;;;;;;;;;4.75;3.75;;;;;22.21;58.68;101386.91;5020108;28;45258;-65
2022/08/05 08:12:40;;;;;;;;;7.50;4.75;;;;;22.23;59.49;101384.06;5020103;28;45334;-65
2022/08/05 08:15:07;;;;;;;;;5.00;4.00;;;;;22.32;59.44;101390.72;5019799;28;45340;-64
2022/08/05 08:17:32;;;;;;;;;5.25;5.00;;;;;22.37;59.94;101388.59;5019846;28;45359;-65
2022/08/05 08:19:58;;;;;;;;;4.25;4.25;;;;;22.44;59.04;101392.59;5020032;28;45332;-65
2022/08/05 08:22:25;;;;;;;;;5.00;5.00;;;;;22.48;59.21;101396.81;5018580;28;45362;-65
2022/08/05 08:24:50;;;;;;;;;5.25;4.00;;;;;22.49;59.37;101392.25;5019844;28;45224;-64
2022/08/05 08:27:16;;;;;;;;;5.00;5.00;;;;;22.56;59.69;101399.00;5019351;28;46046;-65
2022/08/05 08:29:41;;;;;;;;;5.00;5.00;;;;;22.57;59.34;101398.88;5019696;28;45340;-65
2022/08/05 08:32:06;;;;;;;;;4.00;4.00;;;;;22.62;58.91;101408.53;5019519;28;47841;-65
2022/08/05 08:34:31;;;;;;;;;8.50;5.25;;;;;22.65;59.25;101402.88;5019165;28;55597;-65
2022/08/05 08:36:57;;;;;;;;;5.25;5.25;;;;;22.69;58.68;101408.00;5017580;28;54754;-65
2022/08/05 08:39:23;;;;;;;;;7.00;5.50;;;;;22.73;57.92;101417.66;5018440;28;45303;-65
2022/08/05 08:41:50;;;;;;;;;6.75;5.75;;;;;22.76;58.04;101422.88;5019363;28;45439;-64
2022/08/05 08:44:17;;;;;;;;;4.75;4.75;;;;;22.80;58.41;101422.66;5019412;28;45540;-64
2022/08/05 08:46:44;;;;;;;;;4.50;4.50;;;;;22.81;58.62;101422.56;5019181;28;46243;-63
2022/08/05 08:49:12;;;;;;;;;6.50;5.50;;;;;22.82;58.02;101424.31;5019504;28;45441;-63
2022/08/05 08:51:40;;;;;;;;;7.00;6.00;;;;;22.86;57.51;101425.81;5019431;28;45404;-63
2022/08/05 08:54:05;;;;;;;;;5.50;5.50;;;;;22.89;57.60;101435.63;5019038;28;45230;-64
2022/08/05 08:56:31;;;;;;;;;19.50;17.50;;;;;22.91;57.06;101433.63;5018577;28;59063;-64
2022/08/05 08:58:58;;;;;;;;;6.75;6.50;;;;;22.91;57.20;101434.50;5019453;28;45530;-64
2022/08/05 09:01:24;;;;;;;;;4.75;4.75;;;;;22.96;56.67;101438.75;5019207;28;45313;-64
2022/08/05 09:03:51;;;;;;;;;4.25;4.25;;;;;22.98;57.33;101437.63;5019166;28;45328;-63
2022/08/05 09:06:17;;;;;;;;;4.25;4.00;;;;;23.00;57.54;101434.81;5018066;28;46173;-64
2022/08/05 09:08:42;;;;;;;;;4.50;3.75;;;;;23.04;57.59;101437.19;5019041;28;45281;-63
2022/08/05 09:11:08;;;;;;;;;4.00;3.75;;;;;23.06;56.29;101442.53;5019318;28;45299;-63
2022/08/05 09:13:36;;;;;;;;;5.00;5.00;;;;;23.05;56.12;101440.78;5019126;28;45227;-63
2022/08/05 09:16:02;;;;;;;;;5.00;4.50;;;;;23.12;55.98;101448.41;5018877;28;45549;-63
2022/08/05 09:18:28;;;;;;;;;5.00;4.00;;;;;23.12;54.77;101447.53;5019127;28;45400;-64
2022/08/05 09:20:54;;;;;;;;;4.25;4.25;;;;;23.13;55.81;101441.13;5018926;28;45286;-64
2022/08/05 09:23:19;;;;;;;;;5.75;5.00;;;;;23.16;55.30;101437.31;5018943;28;45534;-64
2022/08/05 09:26:04;;;;;;;;;5.75;4.00;;;;;23.18;55.26;101449.81;5018841;28;46017;-64
2022/08/05 09:28:31;;;;;;;;;4.75;3.75;;;;;23.22;54.53;101450.44;5019041;28;45287;-64
2022/08/05 09:31:03;;;;;;;;;6.00;4.50;;;;;23.22;55.57;101442.28;5018971;28;45185;-64
2022/08/05 09:33:29;;;;;;;;;2.25;2.25;;;;;23.27;55.04;101454.59;5019269;28;45241;-65
2022/08/05 09:36:04;;;;;;;;;5.00;5.00;;;;;23.28;54.52;101450.00;5021051;28;45283;-64
2022/08/05 09:38:30;;;;;;;;;4.75;4.75;;;;;23.33;53.94;101441.47;5020023;28;45481;-64
2022/08/05 09:41:05;;;;;;;;;6.25;4.25;;;;;23.36;54.80;101446.72;5022166;28;45515;-64
2022/08/05 09:43:35;;;;;;;;;5.75;4.25;;;;;23.39;54.04;101451.91;5021961;28;45328;-64
2022/08/05 09:46:04;;;;;;;;;5.75;5.50;;;;;23.42;53.97;101451.66;5021212;28;45389;-64
2022/08/05 09:48:31;;;;;;;;;6.25;6.25;;;;;23.42;53.77;101448.94;5021970;28;45560;-64
2022/08/05 09:51:00;;;;;;;;;8.00;8.00;;;;;23.43;53.06;101462.44;5022381;28;45218;-64
2022/08/05 09:53:27;;;;;;;;;7.00;7.00;;;;;23.36;53.46;101441.25;5021529;28;45332;-64
2022/08/05 09:55:58;;;;;;;;;6.50;5.00;;;;;23.45;53.06;101462.34;5022025;28;46108;-63
2022/08/05 09:58:25;;;;;;;;;4.50;4.50;;;;;23.48;53.11;101452.06;5021849;28;45376;-63
2022/08/05 10:00:57;;;;;;;;;6.50;5.50;;;;;23.55;53.57;101457.06;5022155;28;45365;-64
2022/08/05 10:03:23;;;;;;;;;4.75;4.75;;;;;23.58;54.05;101451.38;5021592;28;45252;-64
2022/08/05 10:06:09;;;;;;;;;9.50;9.00;;;;;23.64;53.79;101462.69;5020796;28;45282;-64
2022/08/05 10:08:37;;;;;;;;;8.50;6.25;;;;;23.67;53.22;101457.00;5021323;28;45225;-64
2022/08/05 10:11:13;;;;;;;;;9.75;8.75;;;;;23.72;52.22;101461.22;5021954;28;45332;-64
2022/08/05 10:13:39;;;;;;;;;9.00;9.00;;;;;23.74;53.06;101457.41;5021614;28;45325;-64
2022/08/05 10:16:06;;;;;;;;;9.00;8.00;;;;;23.75;52.22;101463.72;5021788;28;45358;-64
2022/08/05 10:18:33;;;;;;;;;9.25;8.00;;;;;23.76;53.57;101455.44;5021961;28;45364;-64
2022/08/05 10:21:01;;;;;;;;;8.50;8.50;;;;;23.82;52.58;101456.84;5021915;28;45364;-65
2022/08/05 10:23:31;;;;;;;;;8.00;8.00;;;;;23.87;52.89;101462.78;5021262;28;45313;-65
2022/08/05 10:25:59;;;;;;;;;14.50;11.75;;;;;23.89;52.04;101460.84;5021520;28;46960;-65
2022/08/05 10:28:26;;;;;;;;;8.75;8.75;;;;;23.90;52.18;101459.84;5021699;28;45174;-65
2022/08/05 10:30:52;;;;;;;;;7.50;7.50;;;;;23.95;53.24;101457.63;5021510;28;45363;-65
2022/08/05 10:33:19;;;;;;;;;11.00;8.00;;;;;24.02;52.73;101458.00;5020289;28;45324;-65
2022/08/05 10:35:44;;;;;;;;;8.25;8.25;;;;;24.08;51.60;101467.59;5021484;28;45380;-65
2022/08/05 10:38:11;;;;;;;;;9.25;9.00;;;;;24.13;52.68;101459.91;5021557;28;45325;-65
2022/08/05 10:40:48;;;;;;;;;7.25;7.25;;;;;24.15;52.15;101463.38;5021476;28;45331;-65
2022/08/05 10:43:23;;;;;;;;;9.25;8.75;;;;;24.15;52.40;101463.38;5021390;28;45440;-65
2022/08/05 10:46:00;;;;;;;;;6.25;6.25;;;;;24.17;51.60;101466.84;5020320;28;45280;-65
2022/08/05 10:48:40;;;;;;;;;7.75;7.75;;;;;24.19;51.05;101456.69;5021158;28;45363;-65
2022/08/05 10:51:09;;;;;;;;;6.75;6.75;;;;;24.22;50.39;101454.59;5021446;28;45376;-65
2022/08/05 10:53:36;;;;;;;;;6.25;6.25;;;;;24.25;50.57;101469.00;5020789;28;45356;-65
2022/08/05 10:56:04;;;;;;;;;4.25;4.25;;;;;24.28;49.78;101457.84;5021146;28;45420;-66
2022/08/05 10:58:30;;;;;;;;;6.25;6.00;;;;;24.32;50.73;101456.59;5020763;28;45273;-65
2022/08/05 11:00:55;;;;;;;;;8.00;6.50;;;;;24.35;50.41;101462.66;5021283;28;45335;-65
2022/08/05 11:03:21;;;;;;;;;8.75;7.25;;;;;24.35;49.70;101468.13;5018763;28;45545;-65
2022/08/05 11:06:04;;;;;;;;;7.25;5.50;;;;;24.42;49.56;101473.97;5021033;28;46779;-65
2022/08/05 11:08:30;;;;;;;;;5.50;5.50;;;;;24.47;49.51;101479.91;5020714;28;45281;-65
2022/08/05 11:11:34;;;;;;;;;7.00;5.00;;;;;24.50;48.84;101479.69;5021004;28;45249;-64
2022/08/05 11:14:00;;;;;;;;;7.00;7.00;;;;;24.53;49.16;101486.78;5020954;28;45430;-64
2022/08/05 11:16:26;;;;;;;;;9.75;6.50;;;;;24.51;50.21;101480.56;5020424;28;46263;-64
2022/08/05 11:19:26;;;;;;;;;6.00;4.50;;;;;24.57;50.08;101480.09;5020290;28;57568;-65
2022/08/05 11:22:33;;;;;;;;;8.25;6.25;;;;;24.58;49.91;101488.16;5018843;28;45415;-64
2022/08/05 11:25:30;;;;;;;;;7.25;5.75;;;;;24.60;49.58;101485.31;5020601;28;45478;-65
2022/08/05 11:28:11;;;;;;;;;7.75;6.50;;;;;24.62;49.07;101485.19;5020378;28;46304;-64
2022/08/05 11:30:54;;;;;;;;;7.50;5.75;;;;;24.65;49.05;101484.94;5020522;28;45364;-65